createdAt,value
2023-03-17T00:00:22.369Z,95146.00
2023-03-17T00:02:50.654Z,95134.59
2023-03-17T00:05:17.891Z,95153.47
2023-03-17T00:07:46.708Z,95151.66
2023-03-17T00:10:17.519Z,95153.09
2023-03-17T00:12:45.660Z,95157.09
2023-03-17T00:15:14.930Z,95156.09
2023-03-17T00:17:42.375Z,95167.09
2023-03-17T00:20:17.587Z,95152.38
2023-03-17T00:22:45.449Z,95129.38
2023-03-17T00:25:27.355Z,95158.63
2023-03-17T00:27:55.501Z,95131.19
2023-03-17T00:30:23.320Z,95153.00
2023-03-17T00:32:52.835Z,95151.38
2023-03-17T00:35:23.981Z,95153.44
2023-03-17T00:37:53.603Z,95135.66
2023-03-17T00:40:26.629Z,95133.19
2023-03-17T00:42:53.708Z,95157.81
2023-03-17T00:45:23.502Z,95152.19
2023-03-17T00:47:53.365Z,95152.81
2023-03-17T00:50:24.435Z,95150.63
2023-03-17T00:52:54.300Z,95152.25
2023-03-17T00:55:22.366Z,95145.53
2023-03-17T00:57:50.425Z,95152.03
2023-03-17T01:00:19.442Z,95168.28
2023-03-17T01:02:47.511Z,95168.91
2023-03-17T01:05:15.071Z,95160.00
2023-03-17T01:07:48.007Z,95152.44
2023-03-17T01:10:21.170Z,95146.53
2023-03-17T01:12:51.253Z,95162.63
2023-03-17T01:15:19.943Z,95146.91
2023-03-17T01:17:48.010Z,95170.34
2023-03-17T01:20:22.822Z,95166.34
2023-03-17T01:22:50.630Z,95157.97
2023-03-17T01:25:19.355Z,95163.88
2023-03-17T01:27:47.509Z,95170.16
2023-03-17T01:30:19.579Z,95167.75
2023-03-17T01:32:47.303Z,95166.09
2023-03-17T01:35:14.713Z,95159.84
2023-03-17T01:37:42.336Z,95170.63
2023-03-17T01:40:15.481Z,95174.91
2023-03-17T01:42:48.085Z,95173.88
2023-03-17T01:45:52.713Z,95165.59
2023-03-17T01:48:19.960Z,95170.06
2023-03-17T01:50:48.408Z,95175.13
2023-03-17T01:53:16.450Z,95172.88
2023-03-17T01:55:46.001Z,95172.63
2023-03-17T01:58:16.151Z,95158.63
2023-03-17T02:00:44.096Z,95170.97
2023-03-17T02:03:11.684Z,95179.91
2023-03-17T02:05:39.669Z,95180.16
2023-03-17T02:08:16.625Z,95181.34
2023-03-17T02:10:46.066Z,95177.88
2023-03-17T02:13:13.845Z,95186.19
2023-03-17T02:15:51.764Z,95185.78
2023-03-17T02:18:26.061Z,95190.81
2023-03-17T02:21:27.323Z,95185.38
2023-03-17T02:23:55.683Z,95189.25
2023-03-17T02:26:26.047Z,95188.19
2023-03-17T02:28:53.764Z,95193.06
2023-03-17T02:31:21.337Z,95192.16
2023-03-17T02:33:48.355Z,95193.19
2023-03-17T02:36:15.776Z,95197.81
2023-03-17T02:38:45.283Z,95205.13
2023-03-17T02:41:12.251Z,95201.72
2023-03-17T02:43:44.897Z,95195.59
2023-03-17T02:46:12.663Z,95215.94
2023-03-17T02:48:40.194Z,95213.34
2023-03-17T02:51:07.569Z,95186.72
2023-03-17T02:53:34.544Z,95215.63
2023-03-17T02:56:02.282Z,95214.78
2023-03-17T02:58:30.484Z,95208.69
2023-03-17T03:00:57.920Z,95215.25
2023-03-17T03:03:25.105Z,95207.25
2023-03-17T03:05:52.005Z,95208.91
2023-03-17T03:08:19.219Z,95217.25
2023-03-17T03:10:46.859Z,95207.44
2023-03-17T03:13:13.959Z,95223.50
2023-03-17T03:15:42.724Z,95222.44
2023-03-17T03:18:09.977Z,95229.56
2023-03-17T03:20:37.091Z,95234.03
2023-03-17T03:23:04.375Z,95230.50
2023-03-17T03:25:31.551Z,95233.13
2023-03-17T03:27:58.484Z,95236.13
2023-03-17T03:30:25.647Z,95242.19
2023-03-17T03:32:52.823Z,95228.50
2023-03-17T03:35:19.923Z,95247.44
2023-03-17T03:37:46.854Z,95246.63
2023-03-17T03:40:14.341Z,95251.72
2023-03-17T03:42:42.087Z,95247.63
2023-03-17T03:45:09.811Z,95251.09
2023-03-17T03:47:36.951Z,95219.28
2023-03-17T03:50:04.049Z,95254.75
2023-03-17T03:52:31.176Z,95237.53
2023-03-17T03:54:58.185Z,95253.47
2023-03-17T03:57:25.387Z,95252.25
2023-03-17T03:59:52.290Z,95253.31
2023-03-17T04:02:19.593Z,95260.66
2023-03-17T04:04:47.051Z,95258.88
2023-03-17T04:07:14.310Z,95246.25
2023-03-17T04:09:41.547Z,95256.88
2023-03-17T04:12:09.005Z,95269.06
2023-03-17T04:14:36.583Z,95261.47
2023-03-17T04:17:05.273Z,95248.94
2023-03-17T04:19:32.409Z,95281.31
2023-03-17T04:21:59.712Z,95279.31
2023-03-17T04:24:27.888Z,95274.09
2023-03-17T04:26:55.204Z,95274.78
2023-03-17T04:29:22.035Z,95286.75
2023-03-17T04:31:49.124Z,95286.38
2023-03-17T04:34:18.029Z,95282.94
2023-03-17T04:36:47.213Z,95271.09
2023-03-17T04:39:15.701Z,95288.84
2023-03-17T04:41:42.669Z,95285.94
2023-03-17T04:44:09.631Z,95289.84
2023-03-17T04:46:36.830Z,95294.94
2023-03-17T04:49:04.447Z,95289.84
2023-03-17T04:51:31.290Z,95214.84
2023-03-17T04:53:58.148Z,95294.34
2023-03-17T04:56:25.276Z,95281.44
2023-03-17T04:58:52.455Z,95307.09
2023-03-17T05:01:19.756Z,95295.75
2023-03-17T05:03:46.658Z,95303.88
2023-03-17T05:06:14.134Z,95301.31
2023-03-17T05:08:41.258Z,95317.88
2023-03-17T05:11:09.483Z,95319.31
2023-03-17T05:13:36.522Z,95318.94
2023-03-17T05:16:03.790Z,95327.84
2023-03-17T05:18:30.978Z,95324.56
2023-03-17T05:20:57.907Z,95328.59
2023-03-17T05:23:26.512Z,95320.88
2023-03-17T05:25:54.062Z,95342.53
2023-03-17T05:28:25.558Z,95341.72
2023-03-17T05:30:54.500Z,95343.78
2023-03-17T05:33:21.886Z,95350.88
2023-03-17T05:35:49.079Z,95328.88
2023-03-17T05:38:16.413Z,95329.78
2023-03-17T05:40:44.036Z,95346.47
2023-03-17T05:43:11.574Z,95343.78
2023-03-17T05:45:39.207Z,95350.56
2023-03-17T05:48:06.513Z,95344.88
2023-03-17T05:50:33.714Z,95349.38
2023-03-17T05:53:01.012Z,95362.22
2023-03-17T05:55:28.137Z,95350.53
2023-03-17T05:57:55.057Z,95358.31
2023-03-17T06:00:23.168Z,95367.03
2023-03-17T06:02:50.414Z,95372.94
2023-03-17T06:05:17.609Z,95373.31
2023-03-17T06:07:54.029Z,95372.38
2023-03-17T06:10:24.430Z,95391.84
2023-03-17T06:12:51.566Z,95399.84
2023-03-17T06:15:19.744Z,95386.69
2023-03-17T06:17:46.839Z,95402.44
2023-03-17T06:20:14.624Z,95406.44
2023-03-17T06:23:00.369Z,95394.09
2023-03-17T06:25:30.221Z,95396.88
2023-03-17T06:27:57.848Z,95380.66
2023-03-17T06:30:24.916Z,95390.88
2023-03-17T06:32:51.902Z,95402.66
2023-03-17T06:35:18.907Z,95407.06
2023-03-17T06:37:46.135Z,95391.19
2023-03-17T06:40:13.866Z,95373.47
2023-03-17T06:42:41.329Z,95403.66
2023-03-17T06:45:09.439Z,95415.47
2023-03-17T06:47:37.299Z,95411.19
2023-03-17T06:50:05.918Z,95416.97
2023-03-17T06:52:33.211Z,95416.19
2023-03-17T06:55:00.124Z,95410.69
2023-03-17T06:57:27.068Z,95411.31
2023-03-17T07:03:22.527Z,95423.53
2023-03-17T07:05:49.366Z,95427.63
2023-03-17T07:08:17.164Z,95420.31
2023-03-17T07:10:44.371Z,95429.50
2023-03-17T07:13:12.234Z,95428.06
2023-03-17T07:15:39.195Z,95434.00
2023-03-17T07:18:07.232Z,95420.34
2023-03-17T07:20:34.140Z,95426.44
2023-03-17T07:23:01.337Z,95438.69
2023-03-17T07:25:30.292Z,95433.16
2023-03-17T07:27:58.557Z,95423.00
2023-03-17T07:30:26.840Z,95428.91
2023-03-17T07:32:54.190Z,95400.59
2023-03-17T07:35:21.358Z,95413.41
2023-03-17T07:37:49.787Z,95354.75
2023-03-17T07:40:18.604Z,95429.28
2023-03-17T07:42:45.550Z,95424.63
2023-03-17T07:45:12.928Z,95445.41
2023-03-17T07:47:40.270Z,95434.19
2023-03-17T07:50:07.854Z,95450.72
2023-03-17T07:52:34.888Z,95448.06
2023-03-17T07:55:02.675Z,95372.66
2023-03-17T07:57:30.100Z,95432.50
2023-03-17T07:59:57.013Z,95443.22
2023-03-17T08:02:24.487Z,95444.75
2023-03-17T08:04:51.732Z,95450.66
2023-03-17T08:07:18.822Z,95451.28
2023-03-17T08:09:46.620Z,95458.16
2023-03-17T08:12:14.676Z,95424.41
2023-03-17T08:14:41.771Z,95437.34
2023-03-17T08:17:08.971Z,95455.97
2023-03-17T08:19:36.301Z,95456.34
2023-03-17T08:22:03.434Z,95451.97
2023-03-17T08:24:30.539Z,95449.09
2023-03-17T08:26:59.722Z,95449.56
2023-03-17T08:29:30.556Z,95460.28
2023-03-17T08:31:57.716Z,95450.56
2023-03-17T08:34:26.204Z,95460.50
2023-03-17T08:36:53.459Z,95452.25
2023-03-17T08:39:20.784Z,95451.47
2023-03-17T08:41:47.772Z,95448.19
2023-03-17T08:44:15.092Z,95432.66
2023-03-17T08:46:42.701Z,95455.59
2023-03-17T08:49:10.900Z,95455.53
2023-03-17T08:51:38.745Z,95437.19
2023-03-17T08:54:06.987Z,95445.47
2023-03-17T08:56:34.660Z,95460.97
2023-03-17T08:59:02.444Z,95459.28
2023-03-17T09:01:29.528Z,95459.66
2023-03-17T09:03:56.625Z,95452.84
2023-03-17T09:06:23.756Z,95448.44
2023-03-17T09:08:55.416Z,95461.19
2023-03-17T09:11:30.315Z,95459.28
2023-03-17T09:13:57.552Z,95462.38
2023-03-17T09:16:24.960Z,95458.59
2023-03-17T09:18:52.323Z,95448.63
2023-03-17T09:21:19.616Z,95461.03
2023-03-17T09:23:46.971Z,95467.66
2023-03-17T09:26:14.071Z,95458.91
2023-03-17T09:28:41.821Z,95472.88
2023-03-17T09:31:12.375Z,95468.03
2023-03-17T09:33:40.764Z,95448.00
2023-03-17T09:36:09.032Z,95449.44
2023-03-17T09:38:37.240Z,95459.56
2023-03-17T09:41:49.816Z,95420.06
2023-03-17T09:44:21.999Z,95465.03
2023-03-17T09:46:58.011Z,95467.75
2023-03-17T09:49:36.475Z,95475.00
2023-03-17T09:52:04.408Z,95477.50
2023-03-17T09:54:34.959Z,95479.56
2023-03-17T09:57:32.572Z,95479.13
2023-03-17T10:00:23.144Z,95474.00
2023-03-17T10:02:50.511Z,95477.94
2023-03-17T10:05:17.381Z,95474.94
2023-03-17T10:07:50.813Z,95475.84
2023-03-17T10:10:37.274Z,95470.22
2023-03-17T10:13:04.149Z,95483.09
2023-03-17T10:15:50.857Z,95412.22
2023-03-17T10:18:19.264Z,95478.06
2023-03-17T10:21:11.005Z,95480.25
2023-03-17T10:23:37.967Z,95474.09
2023-03-17T10:26:24.868Z,95465.13
2023-03-17T10:28:55.201Z,95458.28
2023-03-17T10:31:33.413Z,95466.50
2023-03-17T10:34:13.875Z,95467.81
2023-03-17T10:36:44.733Z,95459.31
2023-03-17T10:39:17.543Z,95460.25
2023-03-17T10:42:11.338Z,95469.28
2023-03-17T10:44:50.958Z,95377.94
2023-03-17T10:47:24.201Z,95461.72
2023-03-17T10:49:53.632Z,95454.31
2023-03-17T10:52:27.925Z,95453.53
2023-03-17T10:54:55.150Z,95446.09
2023-03-17T10:57:23.083Z,95443.53
2023-03-17T10:59:53.760Z,95441.19
2023-03-17T11:02:26.728Z,95434.97
2023-03-17T11:05:04.333Z,95420.31
2023-03-17T11:07:38.838Z,95415.22
2023-03-17T11:10:26.239Z,95419.53
2023-03-17T11:13:03.813Z,95393.50
2023-03-17T11:15:56.535Z,95398.53
2023-03-17T11:18:29.743Z,95415.13
2023-03-17T11:21:16.071Z,95422.13
2023-03-17T11:23:55.667Z,95417.84
2023-03-17T11:26:37.645Z,95418.44
2023-03-17T11:29:43.404Z,95413.53
2023-03-17T11:32:33.523Z,95410.81
2023-03-17T11:35:14.204Z,95398.81
2023-03-17T11:38:07.637Z,95407.22
2023-03-17T11:40:40.313Z,95396.09
2023-03-17T11:43:29.165Z,95410.63
2023-03-17T11:46:19.356Z,95402.25
2023-03-17T11:49:08.268Z,95408.44
2023-03-17T11:52:17.345Z,95406.53
2023-03-17T11:55:38.744Z,95411.09
2023-03-17T11:58:11.574Z,95404.22
2023-03-17T12:00:51.470Z,95388.13
2023-03-17T12:03:48.727Z,95401.47
2023-03-17T12:06:29.718Z,95388.34
2023-03-17T12:09:08.501Z,95398.59
2023-03-17T12:11:38.895Z,95404.56
2023-03-17T12:14:14.069Z,95390.91
2023-03-17T12:17:05.528Z,95390.41
2023-03-17T12:20:02.843Z,95377.75
2023-03-17T12:22:38.032Z,95387.13
2023-03-17T12:25:11.489Z,95386.75
2023-03-17T12:27:58.451Z,95383.09
2023-03-17T12:30:55.749Z,95383.81
2023-03-17T12:33:38.741Z,95382.63
2023-03-17T12:36:08.066Z,95384.28
2023-03-17T12:38:35.846Z,95378.50
2023-03-17T12:41:18.289Z,95379.25
2023-03-17T12:44:14.503Z,95380.09
2023-03-17T12:47:19.045Z,95393.66
2023-03-17T12:50:05.128Z,95385.44
2023-03-17T12:52:35.498Z,95382.91
2023-03-17T12:55:05.095Z,95374.31
2023-03-17T12:57:39.997Z,95382.78
2023-03-17T13:00:25.516Z,95369.91
2023-03-17T13:03:13.400Z,95374.31
2023-03-17T13:05:47.040Z,95371.06
2023-03-17T13:08:24.035Z,95379.88
2023-03-17T13:10:51.347Z,95378.47
2023-03-17T13:13:53.720Z,95376.69
2023-03-17T13:16:29.655Z,95380.75
2023-03-17T13:19:19.161Z,95375.91
2023-03-17T13:22:00.895Z,95380.69
2023-03-17T13:24:42.570Z,95370.16
2023-03-17T13:27:12.981Z,95367.88
2023-03-17T13:29:44.293Z,95359.19
2023-03-17T13:32:17.713Z,95372.03
2023-03-17T13:34:48.769Z,95369.34
2023-03-17T13:37:29.672Z,95375.81
2023-03-17T13:39:56.496Z,95363.97
2023-03-17T13:42:45.921Z,95375.34
2023-03-17T13:45:32.681Z,95368.28
2023-03-17T13:48:25.197Z,95372.69
2023-03-17T13:51:19.326Z,95376.25
2023-03-17T13:53:59.157Z,95383.22
2023-03-17T13:56:39.604Z,95387.91
2023-03-17T13:59:42.924Z,95381.88
2023-03-17T14:02:18.453Z,95345.78
2023-03-17T14:04:53.651Z,95381.28
2023-03-17T14:07:24.596Z,95388.00
2023-03-17T14:09:57.513Z,95378.19
2023-03-17T14:12:46.868Z,95386.22
2023-03-17T14:15:21.977Z,95389.66
2023-03-17T14:17:56.278Z,95377.84
2023-03-17T14:20:27.102Z,95388.91
2023-03-17T14:23:01.665Z,95374.69
2023-03-17T14:25:35.138Z,95358.03
2023-03-17T14:28:09.379Z,95392.31
2023-03-17T14:30:38.844Z,95386.56
2023-03-17T14:33:20.527Z,95369.03
2023-03-17T14:35:50.984Z,95400.81
2023-03-17T14:38:24.228Z,95376.75
2023-03-17T14:41:05.164Z,95359.56
2023-03-17T14:43:34.119Z,95393.47
2023-03-17T14:46:25.936Z,95394.28
2023-03-17T14:49:14.078Z,95399.91
2023-03-17T14:51:42.190Z,95389.19
2023-03-17T14:54:22.645Z,95387.69
2023-03-17T14:56:53.042Z,95390.03
2023-03-17T14:59:28.917Z,95394.53
2023-03-17T15:01:58.532Z,95387.91
2023-03-17T15:04:27.565Z,95391.94
2023-03-17T15:07:00.131Z,95330.47
2023-03-17T15:09:33.568Z,95399.16
2023-03-17T15:12:24.793Z,95359.34
2023-03-17T15:14:54.510Z,95409.47
2023-03-17T15:17:29.482Z,95402.22
2023-03-17T15:20:04.920Z,95381.03
2023-03-17T15:22:44.485Z,95407.25
2023-03-17T15:25:37.281Z,95408.75
2023-03-17T15:28:16.005Z,95403.50
2023-03-17T15:30:48.465Z,95421.38
2023-03-17T15:33:37.033Z,95412.00
2023-03-17T15:36:05.828Z,95423.66
2023-03-17T15:38:33.741Z,95369.25
2023-03-17T15:41:00.858Z,95421.66
2023-03-17T15:43:27.765Z,95425.69
2023-03-17T15:46:00.775Z,95431.16
2023-03-17T15:48:31.628Z,95427.09
2023-03-17T15:51:00.291Z,95411.84
2023-03-17T15:53:27.689Z,95431.06
2023-03-17T15:55:54.907Z,95432.59
2023-03-17T15:58:22.091Z,95434.47
2023-03-17T16:00:57.093Z,95416.56
2023-03-17T16:03:36.207Z,95428.78
2023-03-17T16:06:07.402Z,95440.66
2023-03-17T16:08:34.768Z,95441.97
2023-03-17T16:11:03.463Z,95450.03
2023-03-17T16:13:30.596Z,95433.56
2023-03-17T16:16:00.325Z,95281.94
2023-03-17T16:18:37.680Z,95445.06
2023-03-17T16:21:05.392Z,95432.25
2023-03-17T16:23:37.013Z,95447.94
2023-03-17T16:26:14.726Z,95423.19
2023-03-17T16:28:44.931Z,95434.56
2023-03-17T16:31:22.214Z,95443.34
2023-03-17T16:33:50.702Z,95451.13
2023-03-17T16:36:19.866Z,95452.97
2023-03-17T16:38:47.704Z,95454.84
2023-03-17T16:41:19.229Z,95448.53
2023-03-17T16:43:51.179Z,95455.88
2023-03-17T16:46:20.661Z,95444.09
2023-03-17T16:48:48.508Z,95463.25
2023-03-17T16:51:18.565Z,95455.72
2023-03-17T16:53:49.515Z,95453.06
2023-03-17T16:56:21.580Z,95453.47
2023-03-17T16:58:49.687Z,95453.50
2023-03-17T17:01:23.483Z,95451.28
2023-03-17T17:03:50.827Z,95443.16
2023-03-17T17:06:19.441Z,95461.50
2023-03-17T17:08:48.054Z,95452.75
2023-03-17T17:11:16.849Z,95461.69
2023-03-17T17:13:46.192Z,95445.63
2023-03-17T17:16:33.899Z,95468.63
2023-03-17T17:19:02.004Z,95455.75
2023-03-17T17:21:29.437Z,95473.06
2023-03-17T17:23:56.638Z,95477.34
2023-03-17T17:26:23.540Z,95473.25
2023-03-17T17:28:50.599Z,95478.72
2023-03-17T17:31:18.329Z,95468.72
2023-03-17T17:33:48.013Z,95475.47
2023-03-17T17:36:19.933Z,95483.16
2023-03-17T17:38:46.940Z,95487.44
2023-03-17T17:41:14.886Z,95461.72
2023-03-17T17:43:42.064Z,95487.19
2023-03-17T17:46:17.212Z,95462.31
2023-03-17T17:48:56.306Z,95476.56
2023-03-17T17:51:31.147Z,95465.28
2023-03-17T17:53:59.261Z,95484.25
2023-03-17T17:56:42.075Z,95482.00
2023-03-17T17:59:09.962Z,95474.00
2023-03-17T18:01:40.992Z,95481.94
2023-03-17T18:04:23.336Z,95474.78
2023-03-17T18:07:10.818Z,95485.53
2023-03-17T18:09:43.639Z,95477.19
2023-03-17T18:12:11.060Z,95483.88
2023-03-17T18:14:39.226Z,95476.97
2023-03-17T18:17:07.754Z,95458.59
2023-03-17T18:19:35.291Z,95475.91
2023-03-17T18:22:02.459Z,95476.50
2023-03-17T18:24:30.149Z,95459.94
2023-03-17T18:27:00.633Z,95474.19
2023-03-17T18:29:31.512Z,95475.59
2023-03-17T18:32:08.431Z,95475.97
2023-03-17T18:34:44.348Z,95476.75
2023-03-17T18:37:15.063Z,95475.25
2023-03-17T18:40:09.723Z,95486.63
2023-03-17T18:42:37.498Z,95482.75
2023-03-17T18:45:08.675Z,95490.44
2023-03-17T18:47:37.808Z,95477.72
2023-03-17T18:50:07.132Z,95487.72
2023-03-17T18:52:36.453Z,95488.28
2023-03-17T18:55:04.578Z,95486.69
2023-03-17T18:57:32.224Z,95493.53
2023-03-17T18:59:59.165Z,95494.91
2023-03-17T19:02:26.285Z,95489.19
2023-03-17T19:04:53.298Z,95494.06
2023-03-17T19:07:22.246Z,95489.59
2023-03-17T19:09:49.448Z,95476.69
2023-03-17T19:12:16.940Z,95487.88
2023-03-17T19:14:45.129Z,95487.69
2023-03-17T19:17:12.393Z,95489.50
2023-03-17T19:19:41.346Z,95483.78
2023-03-17T19:22:08.459Z,95476.66
2023-03-17T19:24:36.239Z,95483.38
2023-03-17T19:27:04.882Z,95488.03
2023-03-17T19:29:32.883Z,95459.81
2023-03-17T19:32:00.558Z,95485.50
2023-03-17T19:34:27.996Z,95446.13
2023-03-17T19:36:55.651Z,95485.06
2023-03-17T19:39:22.761Z,95460.81
2023-03-17T19:41:53.230Z,95474.25
2023-03-17T19:44:20.349Z,95470.75
2023-03-17T19:46:47.756Z,95476.38
2023-03-17T19:49:14.975Z,95467.22
2023-03-17T19:51:42.520Z,95480.22
2023-03-17T19:54:11.403Z,95476.13
2023-03-17T19:56:59.181Z,95472.84
2023-03-17T19:59:28.268Z,95477.72
2023-03-17T20:01:55.639Z,95471.97
2023-03-17T20:04:23.334Z,95440.94
2023-03-17T20:06:55.669Z,95465.63
2023-03-17T20:09:26.064Z,95456.56
2023-03-17T20:11:54.365Z,95466.00
2023-03-17T20:14:21.507Z,95455.13
2023-03-17T20:16:49.093Z,95464.94
2023-03-17T20:19:16.873Z,95445.06
2023-03-17T20:21:43.869Z,95464.66
2023-03-17T20:24:14.703Z,95457.13
2023-03-17T20:26:43.470Z,95450.41
2023-03-17T20:29:13.440Z,95454.06
2023-03-17T20:31:42.156Z,95432.53
2023-03-17T20:34:18.136Z,95455.22
2023-03-17T20:36:46.265Z,95447.06
2023-03-17T20:39:19.640Z,95453.16
2023-03-17T20:41:51.568Z,95448.25
2023-03-17T20:44:19.657Z,95445.00
2023-03-17T20:46:47.787Z,95444.53
2023-03-17T20:49:17.339Z,95445.91
2023-03-17T20:51:44.553Z,95450.34
2023-03-17T20:54:11.449Z,95450.72
2023-03-17T20:56:39.761Z,95437.03
2023-03-17T20:59:09.671Z,95455.38
2023-03-17T21:01:38.713Z,95454.91
2023-03-17T21:04:09.022Z,95378.06
2023-03-17T21:06:37.558Z,95453.19
2023-03-17T21:09:05.338Z,95457.47
2023-03-17T21:11:32.317Z,95457.03
2023-03-17T21:13:59.456Z,95451.47
2023-03-17T21:16:28.439Z,95447.56
2023-03-17T21:18:56.100Z,95431.50
2023-03-17T21:21:23.141Z,95406.72
2023-03-17T21:23:51.424Z,95452.19
2023-03-17T21:26:20.365Z,95445.31
2023-03-17T21:28:48.866Z,95433.41
2023-03-17T21:31:21.225Z,95445.03
2023-03-17T21:33:50.485Z,95443.41
2023-03-17T21:36:17.920Z,95438.50
2023-03-17T21:38:45.595Z,95434.41
2023-03-17T21:41:33.715Z,95439.41
2023-03-17T21:44:01.690Z,95451.75
2023-03-17T21:46:29.562Z,95432.59
2023-03-17T21:49:11.421Z,95454.94
2023-03-17T21:51:38.519Z,95427.13
2023-03-17T21:54:05.876Z,95425.06
2023-03-17T21:56:33.549Z,95423.69
2023-03-17T21:59:00.799Z,95439.59
2023-03-17T22:01:28.135Z,95427.88
2023-03-17T22:03:55.433Z,95444.38
2023-03-17T22:06:22.761Z,95440.94
2023-03-17T22:08:50.645Z,95450.22
2023-03-17T22:11:19.542Z,95432.03
2023-03-17T22:13:47.790Z,95437.13
2023-03-17T22:16:16.181Z,95448.75
2023-03-17T22:18:43.317Z,95425.50
2023-03-17T22:21:10.966Z,95442.38
2023-03-17T22:23:42.317Z,95430.22
2023-03-17T22:26:12.533Z,95432.03
2023-03-17T22:28:40.816Z,95434.03
2023-03-17T22:31:24.321Z,95433.41
2023-03-17T22:33:55.332Z,95427.69
2023-03-17T22:36:24.193Z,95409.50
2023-03-17T22:38:51.626Z,95426.84
2023-03-17T22:41:21.915Z,95430.00
2023-03-17T22:43:49.237Z,95427.22
2023-03-17T22:46:17.718Z,95433.47
2023-03-17T22:48:46.245Z,95439.06
2023-03-17T22:51:19.467Z,95433.63
2023-03-17T22:53:47.808Z,95425.50
2023-03-17T22:56:16.432Z,95422.66
2023-03-17T22:58:44.633Z,95423.03
2023-03-17T23:01:13.477Z,95418.94
2023-03-17T23:03:40.921Z,95415.38
2023-03-17T23:06:08.713Z,95412.13
2023-03-17T23:08:39.059Z,95394.50
2023-03-17T23:11:08.765Z,95419.81
2023-03-17T23:13:36.755Z,95388.94
2023-03-17T23:16:04.817Z,95403.47
2023-03-17T23:18:32.432Z,95412.00
2023-03-17T23:21:00.221Z,95399.13
2023-03-17T23:23:27.581Z,95384.13
2023-03-17T23:25:54.516Z,95420.25
2023-03-17T23:28:21.755Z,95418.59
2023-03-17T23:30:48.839Z,95416.16
2023-03-17T23:33:17.511Z,95415.72
2023-03-17T23:35:46.142Z,95417.53
2023-03-17T23:38:13.828Z,95425.59
2023-03-17T23:40:41.302Z,95422.31
2023-03-17T23:43:08.425Z,95418.88
2023-03-17T23:45:35.482Z,95422.47
2023-03-17T23:48:04.323Z,95416.59
2023-03-17T23:50:32.145Z,95396.97
2023-03-17T23:52:59.314Z,95393.44
2023-03-17T23:55:26.211Z,95411.88
2023-03-17T23:57:53.317Z,95407.44
